sensor_id;sensor_type;location;lat;lon;timestamp;temperature;humidity
28608;DHT22;15802;45.654;13.804;2022-12-07T00:01:05;8.50;99.90
28608;DHT22;15802;45.654;13.804;2022-12-07T00:03:31;8.60;99.90
28608;DHT22;15802;45.654;13.804;2022-12-07T00:05:58;8.60;99.90
28608;DHT22;15802;45.654;13.804;2022-12-07T00:08:23;8.60;99.90
28608;DHT22;15802;45.654;13.804;2022-12-07T00:10:49;8.60;99.90
28608;DHT22;15802;45.654;13.804;2022-12-07T00:13:15;8.60;99.90
28608;DHT22;15802;45.654;13.804;2022-12-07T00:15:40;8.60;99.90
28608;DHT22;15802;45.654;13.804;2022-12-07T00:18:06;8.50;99.90
28608;DHT22;15802;45.654;13.804;2022-12-07T00:20:32;8.60;99.90
28608;DHT22;15802;45.654;13.804;2022-12-07T00:22:58;8.60;99.90
28608;DHT22;15802;45.654;13.804;2022-12-07T00:25:24;8.50;99.90
28608;DHT22;15802;45.654;13.804;2022-12-07T00:27:50;8.50;99.90
28608;DHT22;15802;45.654;13.804;2022-12-07T00:30:15;8.50;99.90
28608;DHT22;15802;45.654;13.804;2022-12-07T00:32:41;8.40;99.90
28608;DHT22;15802;45.654;13.804;2022-12-07T00:35:07;8.50;99.90
28608;DHT22;15802;45.654;13.804;2022-12-07T00:37:33;8.50;99.90
28608;DHT22;15802;45.654;13.804;2022-12-07T00:39:58;8.40;99.90
28608;DHT22;15802;45.654;13.804;2022-12-07T00:42:24;8.30;99.90
28608;DHT22;15802;45.654;13.804;2022-12-07T00:44:49;8.40;99.90
28608;DHT22;15802;45.654;13.804;2022-12-07T00:47:15;8.50;99.90
28608;DHT22;15802;45.654;13.804;2022-12-07T00:49:41;8.50;99.90
28608;DHT22;15802;45.654;13.804;2022-12-07T00:52:07;8.50;99.90
28608;DHT22;15802;45.654;13.804;2022-12-07T00:54:32;8.50;99.90
28608;DHT22;15802;45.654;13.804;2022-12-07T00:56:58;8.60;99.90
28608;DHT22;15802;45.654;13.804;2022-12-07T00:59:24;8.50;99.90
28608;DHT22;15802;45.654;13.804;2022-12-07T01:01:49;8.50;99.90
28608;DHT22;15802;45.654;13.804;2022-12-07T01:04:15;8.50;99.90
28608;DHT22;15802;45.654;13.804;2022-12-07T01:06:41;8.50;99.90
28608;DHT22;15802;45.654;13.804;2022-12-07T01:09:06;8.40;99.90
28608;DHT22;15802;45.654;13.804;2022-12-07T01:11:32;8.30;99.90
28608;DHT22;15802;45.654;13.804;2022-12-07T01:13:58;8.20;99.90
28608;DHT22;15802;45.654;13.804;2022-12-07T01:16:25;8.20;99.90
28608;DHT22;15802;45.654;13.804;2022-12-07T01:18:53;8.20;99.90
28608;DHT22;15802;45.654;13.804;2022-12-07T01:21:20;8.30;99.90
28608;DHT22;15802;45.654;13.804;2022-12-07T01:23:46;8.40;99.90
28608;DHT22;15802;45.654;13.804;2022-12-07T01:26:13;8.50;99.90
28608;DHT22;15802;45.654;13.804;2022-12-07T01:28:39;8.60;99.90
28608;DHT22;15802;45.654;13.804;2022-12-07T01:31:06;8.60;99.90
28608;DHT22;15802;45.654;13.804;2022-12-07T01:33:34;8.50;99.90
28608;DHT22;15802;45.654;13.804;2022-12-07T01:36:04;8.50;99.90
28608;DHT22;15802;45.654;13.804;2022-12-07T01:38:30;8.50;99.90
28608;DHT22;15802;45.654;13.804;2022-12-07T01:40:57;8.50;99.90
28608;DHT22;15802;45.654;13.804;2022-12-07T01:43:23;8.50;99.90
28608;DHT22;15802;45.654;13.804;2022-12-07T01:45:50;8.50;99.90
28608;DHT22;15802;45.654;13.804;2022-12-07T01:48:16;8.50;99.90
28608;DHT22;15802;45.654;13.804;2022-12-07T01:50:43;8.40;99.90
28608;DHT22;15802;45.654;13.804;2022-12-07T01:53:10;8.30;99.90
28608;DHT22;15802;45.654;13.804;2022-12-07T01:55:37;8.10;99.90
28608;DHT22;15802;45.654;13.804;2022-12-07T01:58:03;8.00;99.90
28608;DHT22;15802;45.654;13.804;2022-12-07T02:00:29;7.90;99.90
28608;DHT22;15802;45.654;13.804;2022-12-07T02:02:57;7.80;99.90
28608;DHT22;15802;45.654;13.804;2022-12-07T02:05:25;7.80;99.90
28608;DHT22;15802;45.654;13.804;2022-12-07T02:07:53;7.80;99.90
28608;DHT22;15802;45.654;13.804;2022-12-07T02:10:21;7.70;99.90
28608;DHT22;15802;45.654;13.804;2022-12-07T02:12:50;7.70;99.90
28608;DHT22;15802;45.654;13.804;2022-12-07T02:15:17;7.70;99.90
28608;DHT22;15802;45.654;13.804;2022-12-07T02:20:30;7.70;99.90
28608;DHT22;15802;45.654;13.804;2022-12-07T02:28:34;7.80;99.90
28608;DHT22;15802;45.654;13.804;2022-12-07T02:31:05;7.80;99.90
28608;DHT22;15802;45.654;13.804;2022-12-07T02:33:35;8.00;99.90
28608;DHT22;15802;45.654;13.804;2022-12-07T02:36:12;8.10;99.90
28608;DHT22;15802;45.654;13.804;2022-12-07T02:39:03;8.30;99.90
28608;DHT22;15802;45.654;13.804;2022-12-07T02:41:33;8.30;99.90
28608;DHT22;15802;45.654;13.804;2022-12-07T02:44:01;8.40;99.90
28608;DHT22;15802;45.654;13.804;2022-12-07T02:46:49;8.40;99.90
28608;DHT22;15802;45.654;13.804;2022-12-07T02:49:16;8.40;99.90
28608;DHT22;15802;45.654;13.804;2022-12-07T02:51:42;8.40;99.90
28608;DHT22;15802;45.654;13.804;2022-12-07T02:54:11;8.30;99.90
28608;DHT22;15802;45.654;13.804;2022-12-07T02:56:46;8.30;99.90
28608;DHT22;15802;45.654;13.804;2022-12-07T03:04:47;8.30;99.90
28608;DHT22;15802;45.654;13.804;2022-12-07T03:07:34;8.30;99.90
28608;DHT22;15802;45.654;13.804;2022-12-07T03:10:22;8.30;99.90
28608;DHT22;15802;45.654;13.804;2022-12-07T03:15:36;8.40;99.90
28608;DHT22;15802;45.654;13.804;2022-12-07T03:18:05;8.40;99.90
28608;DHT22;15802;45.654;13.804;2022-12-07T03:20:33;8.40;99.90
28608;DHT22;15802;45.654;13.804;2022-12-07T03:23:00;8.50;99.90
28608;DHT22;15802;45.654;13.804;2022-12-07T03:25:26;8.60;99.90
28608;DHT22;15802;45.654;13.804;2022-12-07T03:27:54;8.60;99.90
28608;DHT22;15802;45.654;13.804;2022-12-07T03:30:23;8.60;99.90
28608;DHT22;15802;45.654;13.804;2022-12-07T03:32:53;8.50;99.90
28608;DHT22;15802;45.654;13.804;2022-12-07T03:35:23;8.60;99.90
28608;DHT22;15802;45.654;13.804;2022-12-07T03:37:52;8.50;99.90
28608;DHT22;15802;45.654;13.804;2022-12-07T03:40:23;8.50;99.90
28608;DHT22;15802;45.654;13.804;2022-12-07T03:42:51;8.50;99.90
28608;DHT22;15802;45.654;13.804;2022-12-07T03:45:18;8.50;99.90
28608;DHT22;15802;45.654;13.804;2022-12-07T03:47:49;8.50;99.90
28608;DHT22;15802;45.654;13.804;2022-12-07T03:50:25;8.60;99.90
28608;DHT22;15802;45.654;13.804;2022-12-07T03:55:39;8.70;99.90
28608;DHT22;15802;45.654;13.804;2022-12-07T03:58:08;8.70;99.90
28608;DHT22;15802;45.654;13.804;2022-12-07T04:00:35;8.70;99.90
28608;DHT22;15802;45.654;13.804;2022-12-07T04:03:01;8.70;99.90
28608;DHT22;15802;45.654;13.804;2022-12-07T04:05:26;8.70;99.90
28608;DHT22;15802;45.654;13.804;2022-12-07T04:07:52;8.60;99.90
28608;DHT22;15802;45.654;13.804;2022-12-07T04:10:18;8.70;99.90
28608;DHT22;15802;45.654;13.804;2022-12-07T04:12:44;8.70;99.90
28608;DHT22;15802;45.654;13.804;2022-12-07T04:15:09;8.70;99.90
28608;DHT22;15802;45.654;13.804;2022-12-07T04:17:35;8.70;99.90
28608;DHT22;15802;45.654;13.804;2022-12-07T04:20:02;8.80;99.90
28608;DHT22;15802;45.654;13.804;2022-12-07T04:22:27;8.80;99.90
28608;DHT22;15802;45.654;13.804;2022-12-07T04:24:53;8.80;99.90
28608;DHT22;15802;45.654;13.804;2022-12-07T04:27:18;8.80;99.90
28608;DHT22;15802;45.654;13.804;2022-12-07T04:29:44;8.80;99.90
28608;DHT22;15802;45.654;13.804;2022-12-07T04:32:10;8.80;99.90
28608;DHT22;15802;45.654;13.804;2022-12-07T04:34:35;8.80;99.90
28608;DHT22;15802;45.654;13.804;2022-12-07T04:37:01;8.80;99.90
28608;DHT22;15802;45.654;13.804;2022-12-07T04:39:28;8.90;99.90
28608;DHT22;15802;45.654;13.804;2022-12-07T04:41:54;8.90;99.90
28608;DHT22;15802;45.654;13.804;2022-12-07T04:44:20;8.90;99.90
28608;DHT22;15802;45.654;13.804;2022-12-07T04:46:46;8.90;99.90
28608;DHT22;15802;45.654;13.804;2022-12-07T04:49:12;8.90;99.90
28608;DHT22;15802;45.654;13.804;2022-12-07T04:51:38;8.90;99.90
28608;DHT22;15802;45.654;13.804;2022-12-07T04:54:04;9.00;99.90
28608;DHT22;15802;45.654;13.804;2022-12-07T04:56:30;9.00;99.90
28608;DHT22;15802;45.654;13.804;2022-12-07T04:58:55;8.90;99.90
28608;DHT22;15802;45.654;13.804;2022-12-07T05:01:21;9.00;99.90
28608;DHT22;15802;45.654;13.804;2022-12-07T05:03:48;9.00;99.90
28608;DHT22;15802;45.654;13.804;2022-12-07T05:06:14;9.00;99.90
28608;DHT22;15802;45.654;13.804;2022-12-07T05:08:40;9.00;99.90
28608;DHT22;15802;45.654;13.804;2022-12-07T05:11:06;9.10;99.90
28608;DHT22;15802;45.654;13.804;2022-12-07T05:13:32;9.10;99.90
28608;DHT22;15802;45.654;13.804;2022-12-07T05:15:58;9.00;99.90
28608;DHT22;15802;45.654;13.804;2022-12-07T05:18:24;9.00;99.90
28608;DHT22;15802;45.654;13.804;2022-12-07T05:20:49;9.00;99.90
28608;DHT22;15802;45.654;13.804;2022-12-07T05:23:16;8.90;99.90
28608;DHT22;15802;45.654;13.804;2022-12-07T05:25:42;8.90;99.90
28608;DHT22;15802;45.654;13.804;2022-12-07T05:28:08;8.90;99.90
28608;DHT22;15802;45.654;13.804;2022-12-07T05:30:34;8.80;99.90
28608;DHT22;15802;45.654;13.804;2022-12-07T05:32:59;8.90;99.90
28608;DHT22;15802;45.654;13.804;2022-12-07T05:35:25;8.80;99.90
28608;DHT22;15802;45.654;13.804;2022-12-07T05:37:51;8.80;99.90
28608;DHT22;15802;45.654;13.804;2022-12-07T05:40:17;8.80;99.90
28608;DHT22;15802;45.654;13.804;2022-12-07T05:42:44;8.80;99.90
28608;DHT22;15802;45.654;13.804;2022-12-07T05:45:10;8.80;99.90
28608;DHT22;15802;45.654;13.804;2022-12-07T05:47:36;8.70;99.90
28608;DHT22;15802;45.654;13.804;2022-12-07T05:50:02;8.80;99.90
28608;DHT22;15802;45.654;13.804;2022-12-07T05:52:28;8.80;99.90
28608;DHT22;15802;45.654;13.804;2022-12-07T05:54:53;8.80;99.90
28608;DHT22;15802;45.654;13.804;2022-12-07T05:57:19;8.80;99.90
28608;DHT22;15802;45.654;13.804;2022-12-07T05:59:45;8.80;99.90
28608;DHT22;15802;45.654;13.804;2022-12-07T06:02:11;8.80;99.90
28608;DHT22;15802;45.654;13.804;2022-12-07T06:04:39;8.70;99.90
28608;DHT22;15802;45.654;13.804;2022-12-07T06:07:05;8.70;99.90
28608;DHT22;15802;45.654;13.804;2022-12-07T06:09:31;8.70;99.90
28608;DHT22;15802;45.654;13.804;2022-12-07T06:11:57;8.60;99.90
28608;DHT22;15802;45.654;13.804;2022-12-07T06:14:41;8.70;99.90
28608;DHT22;15802;45.654;13.804;2022-12-07T06:17:07;8.60;99.90
28608;DHT22;15802;45.654;13.804;2022-12-07T06:19:32;8.60;99.90
28608;DHT22;15802;45.654;13.804;2022-12-07T06:21:58;8.50;99.90
28608;DHT22;15802;45.654;13.804;2022-12-07T06:24:24;8.50;99.90
28608;DHT22;15802;45.654;13.804;2022-12-07T06:26:50;8.50;99.90
28608;DHT22;15802;45.654;13.804;2022-12-07T06:29:16;8.50;99.90
28608;DHT22;15802;45.654;13.804;2022-12-07T06:31:42;8.40;99.90
28608;DHT22;15802;45.654;13.804;2022-12-07T06:34:10;8.40;99.90
28608;DHT22;15802;45.654;13.804;2022-12-07T06:36:36;8.40;99.90
28608;DHT22;15802;45.654;13.804;2022-12-07T06:39:03;8.50;99.90
28608;DHT22;15802;45.654;13.804;2022-12-07T06:41:29;8.40;99.90
28608;DHT22;15802;45.654;13.804;2022-12-07T06:43:55;8.40;99.90
28608;DHT22;15802;45.654;13.804;2022-12-07T06:46:20;8.40;99.90
28608;DHT22;15802;45.654;13.804;2022-12-07T06:48:47;8.40;99.90
28608;DHT22;15802;45.654;13.804;2022-12-07T06:51:15;8.40;99.90
28608;DHT22;15802;45.654;13.804;2022-12-07T06:53:41;8.50;99.90
28608;DHT22;15802;45.654;13.804;2022-12-07T06:56:07;8.40;99.90
28608;DHT22;15802;45.654;13.804;2022-12-07T06:58:32;8.40;99.90
28608;DHT22;15802;45.654;13.804;2022-12-07T07:00:58;8.50;99.90
28608;DHT22;15802;45.654;13.804;2022-12-07T07:03:24;8.50;99.90
28608;DHT22;15802;45.654;13.804;2022-12-07T07:05:52;8.40;99.90
28608;DHT22;15802;45.654;13.804;2022-12-07T07:08:17;8.40;99.90
28608;DHT22;15802;45.654;13.804;2022-12-07T07:10:43;8.40;99.90
28608;DHT22;15802;45.654;13.804;2022-12-07T07:13:09;8.40;99.90
28608;DHT22;15802;45.654;13.804;2022-12-07T07:15:36;8.40;99.90
28608;DHT22;15802;45.654;13.804;2022-12-07T07:18:02;8.40;99.90
28608;DHT22;15802;45.654;13.804;2022-12-07T07:20:28;8.50;99.90
28608;DHT22;15802;45.654;13.804;2022-12-07T07:22:54;8.50;99.90
28608;DHT22;15802;45.654;13.804;2022-12-07T07:25:21;8.60;99.90
28608;DHT22;15802;45.654;13.804;2022-12-07T07:27:49;8.60;99.90
28608;DHT22;15802;45.654;13.804;2022-12-07T07:30:15;8.60;99.90
28608;DHT22;15802;45.654;13.804;2022-12-07T07:32:41;8.60;99.90
28608;DHT22;15802;45.654;13.804;2022-12-07T07:35:07;8.70;99.90
28608;DHT22;15802;45.654;13.804;2022-12-07T07:37:33;8.70;99.90
28608;DHT22;15802;45.654;13.804;2022-12-07T07:39:59;8.70;99.90
28608;DHT22;15802;45.654;13.804;2022-12-07T07:42:25;8.70;99.90
28608;DHT22;15802;45.654;13.804;2022-12-07T07:44:50;8.70;99.90
28608;DHT22;15802;45.654;13.804;2022-12-07T07:47:16;8.70;99.90
28608;DHT22;15802;45.654;13.804;2022-12-07T07:49:44;8.80;99.90
28608;DHT22;15802;45.654;13.804;2022-12-07T07:52:10;8.80;99.90
28608;DHT22;15802;45.654;13.804;2022-12-07T07:54:36;8.90;99.90
28608;DHT22;15802;45.654;13.804;2022-12-07T07:57:02;9.00;99.90
28608;DHT22;15802;45.654;13.804;2022-12-07T07:59:27;9.00;99.90
28608;DHT22;15802;45.654;13.804;2022-12-07T08:01:53;9.10;99.90
28608;DHT22;15802;45.654;13.804;2022-12-07T08:04:21;9.20;99.90
28608;DHT22;15802;45.654;13.804;2022-12-07T08:06:47;9.20;99.90
28608;DHT22;15802;45.654;13.804;2022-12-07T08:09:13;9.20;99.90
28608;DHT22;15802;45.654;13.804;2022-12-07T08:11:39;9.30;99.90
28608;DHT22;15802;45.654;13.804;2022-12-07T08:14:04;9.30;99.90
28608;DHT22;15802;45.654;13.804;2022-12-07T08:16:30;9.30;99.90
28608;DHT22;15802;45.654;13.804;2022-12-07T08:18:55;9.30;99.90
28608;DHT22;15802;45.654;13.804;2022-12-07T08:21:21;9.30;99.90
28608;DHT22;15802;45.654;13.804;2022-12-07T08:23:47;9.30;99.90
28608;DHT22;15802;45.654;13.804;2022-12-07T08:26:13;9.30;99.90
28608;DHT22;15802;45.654;13.804;2022-12-07T08:28:40;9.30;99.90
28608;DHT22;15802;45.654;13.804;2022-12-07T08:31:07;9.40;99.90
28608;DHT22;15802;45.654;13.804;2022-12-07T08:33:34;9.40;99.90
28608;DHT22;15802;45.654;13.804;2022-12-07T08:36:01;9.50;99.90
28608;DHT22;15802;45.654;13.804;2022-12-07T08:38:27;9.50;99.90
28608;DHT22;15802;45.654;13.804;2022-12-07T08:40:54;9.60;99.90
28608;DHT22;15802;45.654;13.804;2022-12-07T08:43:20;9.50;99.90
28608;DHT22;15802;45.654;13.804;2022-12-07T08:48:56;9.60;99.90
28608;DHT22;15802;45.654;13.804;2022-12-07T08:51:23;9.60;99.90
28608;DHT22;15802;45.654;13.804;2022-12-07T08:53:49;9.60;99.90
28608;DHT22;15802;45.654;13.804;2022-12-07T08:56:15;9.60;99.90
28608;DHT22;15802;45.654;13.804;2022-12-07T08:58:41;9.70;99.90
28608;DHT22;15802;45.654;13.804;2022-12-07T09:01:07;9.70;99.90
28608;DHT22;15802;45.654;13.804;2022-12-07T09:03:33;9.80;99.90
28608;DHT22;15802;45.654;13.804;2022-12-07T09:05:59;9.90;99.90
28608;DHT22;15802;45.654;13.804;2022-12-07T09:08:29;9.90;99.90
28608;DHT22;15802;45.654;13.804;2022-12-07T09:10:57;9.90;99.90
28608;DHT22;15802;45.654;13.804;2022-12-07T09:13:22;9.90;99.90
28608;DHT22;15802;45.654;13.804;2022-12-07T09:15:48;10.00;99.90
28608;DHT22;15802;45.654;13.804;2022-12-07T09:18:14;10.00;99.90
28608;DHT22;15802;45.654;13.804;2022-12-07T09:20:39;10.00;99.90
28608;DHT22;15802;45.654;13.804;2022-12-07T09:23:06;10.10;99.90
28608;DHT22;15802;45.654;13.804;2022-12-07T09:25:32;10.10;99.90
28608;DHT22;15802;45.654;13.804;2022-12-07T09:27:59;10.20;99.90
28608;DHT22;15802;45.654;13.804;2022-12-07T09:33:23;10.20;99.90
28608;DHT22;15802;45.654;13.804;2022-12-07T09:35:52;10.20;99.90
28608;DHT22;15802;45.654;13.804;2022-12-07T09:38:18;10.20;99.90
28608;DHT22;15802;45.654;13.804;2022-12-07T09:40:44;10.20;99.90
28608;DHT22;15802;45.654;13.804;2022-12-07T09:43:12;10.10;99.90
28608;DHT22;15802;45.654;13.804;2022-12-07T09:45:38;10.10;99.90
28608;DHT22;15802;45.654;13.804;2022-12-07T09:48:05;10.10;99.90
28608;DHT22;15802;45.654;13.804;2022-12-07T09:50:37;10.20;99.90
28608;DHT22;15802;45.654;13.804;2022-12-07T09:53:08;10.20;99.90
28608;DHT22;15802;45.654;13.804;2022-12-07T09:55:36;10.10;99.90
28608;DHT22;15802;45.654;13.804;2022-12-07T09:58:03;10.10;99.90
28608;DHT22;15802;45.654;13.804;2022-12-07T10:00:29;10.20;99.90
28608;DHT22;15802;45.654;13.804;2022-12-07T10:02:56;10.30;99.90
28608;DHT22;15802;45.654;13.804;2022-12-07T10:05:24;10.30;99.90
28608;DHT22;15802;45.654;13.804;2022-12-07T10:07:50;10.40;99.90
28608;DHT22;15802;45.654;13.804;2022-12-07T10:10:17;10.40;99.90
28608;DHT22;15802;45.654;13.804;2022-12-07T10:12:54;10.50;99.90
28608;DHT22;15802;45.654;13.804;2022-12-07T10:15:20;10.60;99.90
28608;DHT22;15802;45.654;13.804;2022-12-07T10:17:50;10.60;99.90
28608;DHT22;15802;45.654;13.804;2022-12-07T10:20:19;10.70;99.90
28608;DHT22;15802;45.654;13.804;2022-12-07T10:23:04;10.80;99.90
28608;DHT22;15802;45.654;13.804;2022-12-07T10:25:31;10.80;99.90
28608;DHT22;15802;45.654;13.804;2022-12-07T10:27:58;10.90;99.90
28608;DHT22;15802;45.654;13.804;2022-12-07T10:30:25;11.00;99.90
28608;DHT22;15802;45.654;13.804;2022-12-07T10:32:50;11.00;99.90
28608;DHT22;15802;45.654;13.804;2022-12-07T10:35:18;11.00;99.90
28608;DHT22;15802;45.654;13.804;2022-12-07T10:37:45;11.00;99.90
28608;DHT22;15802;45.654;13.804;2022-12-07T10:48:26;11.10;99.90
28608;DHT22;15802;45.654;13.804;2022-12-07T10:53:52;11.00;99.90
28608;DHT22;15802;45.654;13.804;2022-12-07T10:56:40;10.90;99.90
28608;DHT22;15802;45.654;13.804;2022-12-07T10:59:16;10.90;99.90
28608;DHT22;15802;45.654;13.804;2022-12-07T11:01:49;10.90;99.90
28608;DHT22;15802;45.654;13.804;2022-12-07T11:04:21;10.90;99.90
28608;DHT22;15802;45.654;13.804;2022-12-07T11:09:37;10.90;99.90
28608;DHT22;15802;45.654;13.804;2022-12-07T11:12:09;11.00;99.90
28608;DHT22;15802;45.654;13.804;2022-12-07T11:14:41;11.00;99.90
28608;DHT22;15802;45.654;13.804;2022-12-07T11:17:12;11.00;99.90
28608;DHT22;15802;45.654;13.804;2022-12-07T11:22:28;11.00;99.90
28608;DHT22;15802;45.654;13.804;2022-12-07T11:25:17;11.00;99.90
28608;DHT22;15802;45.654;13.804;2022-12-07T11:27:48;11.00;99.90
28608;DHT22;15802;45.654;13.804;2022-12-07T11:30:19;11.10;99.90
28608;DHT22;15802;45.654;13.804;2022-12-07T11:38:18;11.00;99.90
28608;DHT22;15802;45.654;13.804;2022-12-07T11:40:48;11.00;99.90
28608;DHT22;15802;45.654;13.804;2022-12-07T11:43:20;11.00;99.90
28608;DHT22;15802;45.654;13.804;2022-12-07T11:45:49;11.10;99.90
28608;DHT22;15802;45.654;13.804;2022-12-07T11:48:22;11.10;99.90
28608;DHT22;15802;45.654;13.804;2022-12-07T11:50:52;11.00;99.90
28608;DHT22;15802;45.654;13.804;2022-12-07T11:53:22;11.00;99.90
28608;DHT22;15802;45.654;13.804;2022-12-07T11:55:52;11.10;99.90
28608;DHT22;15802;45.654;13.804;2022-12-07T12:01:09;11.10;99.90
28608;DHT22;15802;45.654;13.804;2022-12-07T12:03:38;11.10;99.90
28608;DHT22;15802;45.654;13.804;2022-12-07T12:06:05;11.10;99.90
28608;DHT22;15802;45.654;13.804;2022-12-07T12:08:36;11.10;99.90
28608;DHT22;15802;45.654;13.804;2022-12-07T12:11:24;11.20;99.90
28608;DHT22;15802;45.654;13.804;2022-12-07T12:13:58;11.20;99.90
28608;DHT22;15802;45.654;13.804;2022-12-07T12:16:38;11.20;99.90
28608;DHT22;15802;45.654;13.804;2022-12-07T12:21:54;11.20;99.90
28608;DHT22;15802;45.654;13.804;2022-12-07T12:24:22;11.10;99.90
28608;DHT22;15802;45.654;13.804;2022-12-07T12:26:53;11.20;99.90
28608;DHT22;15802;45.654;13.804;2022-12-07T12:29:32;11.20;99.90
28608;DHT22;15802;45.654;13.804;2022-12-07T12:37:41;11.20;99.90
28608;DHT22;15802;45.654;13.804;2022-12-07T12:40:37;11.20;99.90
28608;DHT22;15802;45.654;13.804;2022-12-07T12:42:56;11.20;99.90
28608;DHT22;15802;45.654;13.804;2022-12-07T12:45:25;11.10;99.90
28608;DHT22;15802;45.654;13.804;2022-12-07T12:50:36;11.20;99.90
28608;DHT22;15802;45.654;13.804;2022-12-07T12:55:59;11.10;99.90
28608;DHT22;15802;45.654;13.804;2022-12-07T12:58:31;11.20;99.90
28608;DHT22;15802;45.654;13.804;2022-12-07T13:03:51;11.20;99.90
28608;DHT22;15802;45.654;13.804;2022-12-07T13:06:34;11.20;99.90
28608;DHT22;15802;45.654;13.804;2022-12-07T13:09:00;11.20;99.90
28608;DHT22;15802;45.654;13.804;2022-12-07T13:11:29;11.20;99.90
28608;DHT22;15802;45.654;13.804;2022-12-07T13:16:41;11.20;99.90
28608;DHT22;15802;45.654;13.804;2022-12-07T13:21:52;11.30;99.90
28608;DHT22;15802;45.654;13.804;2022-12-07T13:24:17;11.20;99.90
28608;DHT22;15802;45.654;13.804;2022-12-07T13:26:44;11.20;99.90
28608;DHT22;15802;45.654;13.804;2022-12-07T13:29:18;11.10;99.90
28608;DHT22;15802;45.654;13.804;2022-12-07T13:31:49;11.10;99.90
28608;DHT22;15802;45.654;13.804;2022-12-07T13:37:00;11.10;99.90
28608;DHT22;15802;45.654;13.804;2022-12-07T13:39:27;11.10;99.90
28608;DHT22;15802;45.654;13.804;2022-12-07T13:41:57;11.10;99.90
28608;DHT22;15802;45.654;13.804;2022-12-07T13:44:24;11.00;99.90
28608;DHT22;15802;45.654;13.804;2022-12-07T13:49:56;11.00;99.90
28608;DHT22;15802;45.654;13.804;2022-12-07T13:52:24;10.90;99.90
28608;DHT22;15802;45.654;13.804;2022-12-07T13:55:14;10.90;99.90
28608;DHT22;15802;45.654;13.804;2022-12-07T13:57:40;11.00;99.90
28608;DHT22;15802;45.654;13.804;2022-12-07T14:00:13;10.90;99.90
28608;DHT22;15802;45.654;13.804;2022-12-07T14:02:54;10.80;99.90
28608;DHT22;15802;45.654;13.804;2022-12-07T14:05:24;10.80;99.90
28608;DHT22;15802;45.654;13.804;2022-12-07T14:07:58;10.80;99.90
28608;DHT22;15802;45.654;13.804;2022-12-07T14:10:32;10.70;99.90
28608;DHT22;15802;45.654;13.804;2022-12-07T14:12:59;10.70;99.90
28608;DHT22;15802;45.654;13.804;2022-12-07T14:15:27;10.70;99.90
28608;DHT22;15802;45.654;13.804;2022-12-07T14:17:54;10.70;99.90
28608;DHT22;15802;45.654;13.804;2022-12-07T14:20:36;10.60;99.90
28608;DHT22;15802;45.654;13.804;2022-12-07T14:23:03;10.60;99.90
28608;DHT22;15802;45.654;13.804;2022-12-07T14:25:50;10.60;99.90
28608;DHT22;15802;45.654;13.804;2022-12-07T14:28:33;10.50;99.90
28608;DHT22;15802;45.654;13.804;2022-12-07T14:30:59;10.50;99.90
28608;DHT22;15802;45.654;13.804;2022-12-07T14:33:25;10.40;99.90
28608;DHT22;15802;45.654;13.804;2022-12-07T14:35:52;10.40;99.90
28608;DHT22;15802;45.654;13.804;2022-12-07T14:38:23;10.40;99.90
28608;DHT22;15802;45.654;13.804;2022-12-07T14:40:50;10.40;99.90
28608;DHT22;15802;45.654;13.804;2022-12-07T14:43:16;10.30;99.90
28608;DHT22;15802;45.654;13.804;2022-12-07T14:45:43;10.20;99.90
28608;DHT22;15802;45.654;13.804;2022-12-07T14:48:10;10.20;99.90
28608;DHT22;15802;45.654;13.804;2022-12-07T14:50:38;10.20;99.90
28608;DHT22;15802;45.654;13.804;2022-12-07T14:53:09;10.10;99.90
28608;DHT22;15802;45.654;13.804;2022-12-07T14:55:37;10.10;99.90
28608;DHT22;15802;45.654;13.804;2022-12-07T14:58:03;10.10;99.90
28608;DHT22;15802;45.654;13.804;2022-12-07T15:00:29;10.00;99.90
28608;DHT22;15802;45.654;13.804;2022-12-07T15:02:55;10.00;99.90
28608;DHT22;15802;45.654;13.804;2022-12-07T15:05:21;9.90;99.90
28608;DHT22;15802;45.654;13.804;2022-12-07T15:07:47;9.90;99.90
28608;DHT22;15802;45.654;13.804;2022-12-07T15:10:17;9.90;99.90
28608;DHT22;15802;45.654;13.804;2022-12-07T15:12:43;9.80;99.90
28608;DHT22;15802;45.654;13.804;2022-12-07T15:15:09;9.80;99.90
28608;DHT22;15802;45.654;13.804;2022-12-07T15:17:35;9.70;99.90
28608;DHT22;15802;45.654;13.804;2022-12-07T15:20:01;9.70;99.90
28608;DHT22;15802;45.654;13.804;2022-12-07T15:22:26;9.70;99.90
28608;DHT22;15802;45.654;13.804;2022-12-07T15:24:52;9.60;99.90
28608;DHT22;15802;45.654;13.804;2022-12-07T15:27:18;9.60;99.90
28608;DHT22;15802;45.654;13.804;2022-12-07T15:29:43;9.50;99.90
28608;DHT22;15802;45.654;13.804;2022-12-07T15:32:09;9.50;99.90
28608;DHT22;15802;45.654;13.804;2022-12-07T15:34:34;9.50;99.90
28608;DHT22;15802;45.654;13.804;2022-12-07T15:37:00;9.50;99.90
28608;DHT22;15802;45.654;13.804;2022-12-07T15:39:26;9.50;99.90
28608;DHT22;15802;45.654;13.804;2022-12-07T15:41:52;9.40;99.90
28608;DHT22;15802;45.654;13.804;2022-12-07T15:44:17;9.40;99.90
28608;DHT22;15802;45.654;13.804;2022-12-07T15:47:01;9.40;99.90
28608;DHT22;15802;45.654;13.804;2022-12-07T15:49:27;9.30;99.90
28608;DHT22;15802;45.654;13.804;2022-12-07T15:51:53;9.30;99.90
28608;DHT22;15802;45.654;13.804;2022-12-07T15:54:20;9.20;99.90
28608;DHT22;15802;45.654;13.804;2022-12-07T15:56:46;9.20;99.90
28608;DHT22;15802;45.654;13.804;2022-12-07T15:59:12;9.20;99.90
28608;DHT22;15802;45.654;13.804;2022-12-07T16:01:38;9.20;99.90
28608;DHT22;15802;45.654;13.804;2022-12-07T16:04:03;9.10;99.90
28608;DHT22;15802;45.654;13.804;2022-12-07T16:06:29;9.10;99.90
28608;DHT22;15802;45.654;13.804;2022-12-07T16:08:55;9.10;99.90
28608;DHT22;15802;45.654;13.804;2022-12-07T16:11:21;9.00;99.90
28608;DHT22;15802;45.654;13.804;2022-12-07T16:13:47;9.00;99.90
28608;DHT22;15802;45.654;13.804;2022-12-07T16:16:14;9.00;99.90
28608;DHT22;15802;45.654;13.804;2022-12-07T16:18:41;9.00;99.90
28608;DHT22;15802;45.654;13.804;2022-12-07T16:21:07;9.00;99.90
28608;DHT22;15802;45.654;13.804;2022-12-07T16:23:32;8.90;99.90
28608;DHT22;15802;45.654;13.804;2022-12-07T16:26:18;8.90;99.90
28608;DHT22;15802;45.654;13.804;2022-12-07T16:28:44;8.90;99.90
28608;DHT22;15802;45.654;13.804;2022-12-07T16:31:11;8.80;99.90
28608;DHT22;15802;45.654;13.804;2022-12-07T16:33:38;8.80;99.90
28608;DHT22;15802;45.654;13.804;2022-12-07T16:36:04;8.80;99.90
28608;DHT22;15802;45.654;13.804;2022-12-07T16:38:30;8.70;99.90
28608;DHT22;15802;45.654;13.804;2022-12-07T16:40:56;8.80;99.90
28608;DHT22;15802;45.654;13.804;2022-12-07T16:43:22;8.70;99.90
28608;DHT22;15802;45.654;13.804;2022-12-07T16:45:48;8.70;99.90
28608;DHT22;15802;45.654;13.804;2022-12-07T16:48:14;8.80;99.90